Hlavní strana
METAR-TAF:

METAR-TAF

Letiště :

Bodensee

Friedrichshafen, Německo

zeměpisná šířka: 47-40N, zeměpisná délka: 009-31E, výška: 416 m

Aktuální stav počasí

Zpráva byla vytvořena před 24 minutami, v 15:50 UTC
vítr z různých směrů 3 kt
Teplota 5°C
Vlhkost vzduchu 81%
Tlak 1025 hPa
Viditelnost 10 km a více
Žádná oblačnost pod 1500 m, nevyskytují se cumulonimby.

METAR: EDNY 161550Z VRB03KT CAVOK 05/02 Q1025

Čas: 17:14 (16:14 UTC)

Předpověď počasí

Zpráva byla vytvořena před 5 hodinami a 14 minutami, v 11:00 UTC
Předpověď platná od 16 v 12 UTC do 17 v 12 UTC
Severovýchodní vítr 10 kt
Viditelnost 10 km a více
Zataženo ve výšce 1200 ft
Dočasný
od 16 v 12 UTC do 16 v 21 UTC
Polojasno ve výšce 1200 ft
Změna
od 16 v 20 UTC do 16 v 23 UTC
Zataženo ve výšce 800 ft
Změna
od 17 v 09 UTC do 17 v 11 UTC
Polojasno ve výšce 800 ft

TAF: EDNY 161100Z 1612/1712 04010KT 9999 OVC012 TEMPO 1612/1621 SCT012 BECMG 1620/1623 OVC008 BECMG 1709/1711 SCT008

Stav a předpovědi počasí z více než 4 000 letišť (zprávy METAR a TAF).

Červené a žluté tečky na mapě představují dostupné meteorologické stanice.

Když kurzor umístíte na tečku, zobrazí se název stanice.

Pak kliknutím zobrazíte stav a předpověď počasí.

Chcete-li změnit mapu, kliknutím na zelené tlačítko se znaménkem +mapu přiblížíte, kliknutím na zelené tlačítko se znaménkem – mapu oddálíte a kliknutím na zelené šipky přejdete na sousední mapy.


METAR-TAF: